Tiempo atmosférico en la estación meteorológica de Benahavis, Málaga (399 m.)



Fecha
DESCASC
Temp. máxima en grados centígrados (hora)
DESCASC
Temp. mínima en grados centígrados (hora)
DESCASC
Temp. media en grados centígrados
DESCASC
Racha de viento máxima en m/sg (hora)
DESCASC
Velocidad máxima media en intervalos de 10 minutos(hora)
DESCASC
Precipitaciones diarias en mm
DESCASC
Precipitaciones de 00:00 a 06:00 en mm
DESCASC
Precipitaciones de 06:00 a 12:00 en mm
DESCASC
Precipitaciones de 12:00 a 18:00 en mm
DESCASC
Precipitaciones de 18:00 a 24:00 en mm
DESCASC
22-04-2019 -- (--) -- (--) -- -- (--) -- (--) -- 0 0 -- --
21-04-2019 17.4 (14:50) 8.8 (06:20) 13.1 6.94 (16:20) 2.22 (15:00) 8 0 0 7.6 0.4
20-04-2019 18 (13:10) 9.2 (05:00) 13.6 7.22 (14:30) 3.06 (14:30) 1.6 0 0 0 1.6
19-04-2019 17.9 (15:50) 8.7 (08:10) 13.3 7.22 (15:50) 3.33 (15:50) 1.8 0 0 0.8 1
18-04-2019 16.2 (13:20) 10.4 (00:00) 13.3 10.28 (10:30) 4.72 (10:30) 4.4 0.8 2.2 1.2 0.2
17-04-2019 16.4 (14:30) 12.9 (00:00) 14.6 8.61 (10:10) 3.33 (04:10) 0 0 0 0 0
16-04-2019 22.1 (13:40) 12.2 (00:00) 17.2 7.5 (04:30) 3.33 (04:30) 0 0 0 0 0
15-04-2019 25.5 (18:10) 14.2 (00:00) 19.8 -- (--) -- (--) -- 0 -- 0 0
14-04-2019 24.6 (16:30) 14 (00:00) 19.3 -- (--) -- (--) -- 0 0 0 --
13-04-2019 22.9 (17:30) 11.6 (00:00) 17.3 7.22 (16:00) 3.61 (16:00) 0 0 0 0 0
12-04-2019 22.3 (17:00) 11.7 (00:00) 17 6.94 (14:50) 3.61 (12:30) 0 0 0 0 0
11-04-2019 23.7 (17:10) 9 (00:00) 16.4 9.44 (15:00) 3.89 (15:30) 0 0 0 0 0
10-04-2019 20 (16:40) 9.4 (00:00) 14.7 13.33 (17:50) 5.28 (10:20) 0 0 0 0 0
09-04-2019 19.3 (17:20) 7.7 (00:00) 13.5 13.89 (17:10) 5.83 (17:10) 0 0 0 0 0
08-04-2019 18.2 (15:40) 11 (00:00) 14.6 11.94 (12:40) 5.83 (12:40) 0.2 0 0.2 0 0
07-04-2019 13.8 (16:20) 8.3 (00:00) 11.1 11.11 (12:10) 5.56 (14:50) 5.6 1.2 0 0.2 4.2
06-04-2019 14.4 (18:00) 7.2 (00:00) 10.8 17.78 (18:10) 6.94 (20:20) 1.6 0 0.4 0.4 0.8
05-04-2019 14.9 (17:00) 8.3 (00:00) 11.6 15 (16:20) 6.39 (16:20) 12.8 0 8 4.8 0
04-04-2019 20.8 (17:10) 7.9 (00:00) 14.3 11.94 (17:30) 6.94 (18:00) 0 0 0 0 0
03-04-2019 23.8 (17:50) 10.9 (00:00) 17.3 8.33 (20:00) 3.89 (14:40) 0 0 0 0 0
02-04-2019 18.6 (16:50) 8.5 (00:00) 13.6 6.11 (15:10) 3.06 (14:30) 0 0 0 0 0
01-04-2019 15.4 (18:00) 9.8 (00:00) 12.6 6.39 (07:10) 3.33 (07:00) 8.6 0 5 3.6 0
31-03-2019 16.7 (14:30) 10.7 (00:00) 13.7 6.39 (14:40) 3.89 (14:40) 7.6 3.8 0.6 3.2 0
30-03-2019 13.8 (12:10) 10.2 (00:00) 12 11.11 (08:40) 6.11 (08:40) 0.6 0 0 0 0.6
29-03-2019 13.1 (12:50) 10 (00:00) 11.6 8.61 (00:50) 3.61 (01:40) 0 0 0 0 0
28-03-2019 14.8 (14:40) 9.5 (00:00) 12.2 10.28 (10:00) 4.17 (20:00) 0 0 0 0 0
27-03-2019 15 (13:10) 10.1 (00:00) 12.6 11.67 (12:40) 4.17 (13:40) 0 0 0 0 0
26-03-2019 18.9 (11:50) 11.8 (00:00) 15.3 9.17 (11:10) 3.89 (10:40) 0 0 0 0 0
25-03-2019 17.7 (14:10) 12.2 (00:00) 15 7.78 (14:20) 3.33 (13:20) 0 0 0 0 0

Gráficas

Temp. máximas Temp. mínimas Temp. medias Precipitaciones Rachas de viento máximas Velocidades máximas media en intervalos de 10 minutos

Datos horarios

Fecha y hora oficial Temperatura (ºC) Velocidad del viento (km/h) Dirección del viento Racha (km/h) Dirección de racha Precipitación (mm) Presión (hPa) Tendencia (hPa) Humedad (%)
2019-04-23 23:00:00 -- -- -- -- -- -- -- -- --
2019-04-23 22:00:00 -- -- -- -- -- -- -- -- --
2019-04-23 21:00:00 11.7 15 Sudoeste 38 Oeste 0 -- -- 60
2019-04-23 20:00:00 13.2 18 Sudoeste 41 Sudoeste 0 -- -- 52
2019-04-23 19:00:00 14.4 19 Sudoeste 50 Sudoeste 0 -- -- 50
2019-04-23 18:00:00 15.2 24 Sudoeste 53 Sudoeste 0 -- -- 48
2019-04-23 17:00:00 15.2 18 Sudoeste 42 Sudoeste 0 -- -- 49
2019-04-23 16:00:00 16.1 11 Sudoeste 52 Sudoeste 0 -- -- 48
2019-04-23 15:00:00 16.3 27 Sudoeste 51 Sudoeste 0 -- -- 43
2019-04-23 14:00:00 16.4 12 Sudoeste 33 Sudoeste 0 -- -- 48
2019-04-23 13:00:00 15.1 5 Oeste 28 Sudoeste 0 -- -- 48
2019-04-23 12:00:00 12.1 9 Sudoeste 27 Sudoeste 0 -- -- 69
2019-04-23 11:00:00 10.3 9 Sudoeste 33 Sudoeste 0.2 -- -- 80
2019-04-23 10:00:00 10.8 5 Sudoeste 26 Sudoeste 0 -- -- 88
2019-04-23 09:00:00 10.7 10 Sudoeste 36 Sudoeste 2.4 -- -- 91
2019-04-23 08:00:00 11.7 17 Sudoeste 42 Sudoeste 2.8 -- -- 93
2019-04-23 07:00:00 13.1 15 Sudoeste 28 Sudoeste 0 -- -- 76
2019-04-23 06:00:00 13.7 18 Sudoeste 41 Sudoeste 0 -- -- 68
2019-04-23 05:00:00 13.9 21 Sudoeste 42 Sur 0 -- -- 68
2019-04-23 04:00:00 14 21 Sudoeste 49 Sudoeste 0 -- -- 70
2019-04-23 03:00:00 13.8 22 Sudoeste 43 Sudoeste 0 -- -- 71
2019-04-23 02:00:00 14.1 23 Sudoeste 40 Sudoeste 0 -- -- 70
2019-04-23 01:00:00 14 14 Sudoeste 37 Sudoeste 0 -- -- 68
2019-04-23 00:00:00 14.3 18 Sudoeste 33 Sudoeste 0 -- -- 71
2019-04-22 23:00:00 14.5 14 Sudoeste 27 Sudoeste 0 -- -- 71
2019-04-22 22:00:00 15.1 14 Sudoeste 31 Sudoeste 0 -- -- 67
2019-04-22 21:00:00 16.1 15 Sudoeste 33 Sudoeste 0 -- -- 63
2019-04-22 20:00:00 17.6 18 Sudoeste 41 Sudoeste 0 -- -- 60
2019-04-22 19:00:00 19 22 Sudoeste 47 Sudoeste 0 -- -- 52
2019-04-22 18:00:00 21.8 23 Sudoeste 46 Sudoeste 0 -- -- 39
2019-04-22 17:00:00 21.7 15 Sudoeste 40 Sudoeste 0 -- -- 45
2019-04-22 16:00:00 22.5 14 Sudoeste 40 Sudoeste 0 -- -- 38
2019-04-22 15:00:00 21 17 Sudoeste 37 Sudoeste 0 -- -- 44
2019-04-22 14:00:00 20.2 11 Sudoeste 34 Sudoeste 0 -- -- 48
2019-04-22 13:00:00 19.1 10 Sudoeste 26 Oeste 0 -- -- 50
2019-04-22 12:00:00 17.9 10 Sudoeste 28 Sudoeste 0 -- -- 56
2019-04-22 11:00:00 14.9 6 Sudoeste 22 Sudoeste 0 -- -- 61
2019-04-22 10:00:00 13.6 2 Sudoeste 17 Sur 0 -- -- 65
2019-04-22 09:00:00 12.6 5 Sudeste 23 Nordeste 0 -- -- 64
2019-04-22 08:00:00 11.9 5 Sudeste 24 Sudoeste 0 -- -- 68
2019-04-22 07:00:00 11.6 9 Sudoeste 28 Sudoeste 0 -- -- 73
2019-04-22 06:00:00 11.5 6 Sur 13 Sur 0 -- -- 75
2019-04-22 05:00:00 11.9 6 Sur 32 Nordeste 0 -- -- 75
2019-04-22 04:00:00 11.8 10 Sudoeste 21 Oeste 0 -- -- 77
2019-04-22 03:00:00 11.3 5 Norte 22 Noroeste 0 -- -- 80
2019-04-22 02:00:00 9.8 2 Sur 8 Nordeste 0 -- -- 95
2019-04-22 01:00:00 10.1 2 Este 4 Nordeste 0 -- -- 95
2019-04-22 00:00:00 10.9 3 Nordeste 5 Nordeste 0 -- -- 93
2019-04-21 23:00:00 12.4 0 Calma 6 Sudoeste 0 -- -- 96
2019-04-21 22:00:00 12.5 2 Nordeste 6 Este 0.2 -- -- 95
2019-04-21 21:00:00 12.7 0 Calma 7 Este 0 -- -- 94
2019-04-21 20:00:00 13.1 3 Nordeste 9 Nordeste 0 -- -- 91
2019-04-21 19:00:00 13.2 4 Nordeste 11 Este 0.2 -- -- 91
2019-04-21 18:00:00 13.8 0 Calma 10 Este 0.2 -- -- 93
2019-04-21 17:00:00 14 2 Nordeste 25 Noroeste 7.4 -- -- 90
2019-04-21 16:00:00 17.1 4 Sudoeste 14 Sudoeste 0 -- -- 69
2019-04-21 15:00:00 17.3 8 Sudoeste 17 Sur 0 -- -- 58
2019-04-21 14:00:00 16.8 3 Sur 13 Sudoeste 0 -- -- 65
2019-04-21 13:00:00 16.4 4 Sudoeste 10 Sudoeste 0 -- -- 64
2019-04-21 12:00:00 14.7 3 Sudoeste 6 Sudoeste 0 -- -- 66
2019-04-21 11:00:00 13.9 0 Calma 8 Nordeste 0 -- -- 66
2019-04-21 10:00:00 12.7 0 Calma 3 Sudoeste 0 -- -- 71
2019-04-21 09:00:00 10.3 0 Calma 4 Este 0 -- -- 78
2019-04-21 08:00:00 9.1 0 Calma 4 Este 0 -- -- 83
2019-04-21 07:00:00 9 4 Nordeste 6 Este 0 -- -- 81
2019-04-21 06:00:00 8.9 0 Calma 4 Nordeste 0 -- -- 94
2019-04-21 05:00:00 9.2 3 Nordeste 4 Nordeste 0 -- -- 95
2019-04-21 04:00:00 9.7 3 Nordeste 4 Nordeste 0 -- -- 95
2019-04-21 03:00:00 10.4 0 Calma 4 Nordeste 0 -- -- 95
2019-04-21 02:00:00 10.5 0 Calma 6 Nordeste 0 -- -- 95
2019-04-21 01:00:00 11.2 0 Calma 8 Nordeste 0 -- -- 94
2019-04-21 00:00:00 11.7 2 Nordeste 6 Nordeste 0 -- -- 94
2019-04-20 23:00:00 12.2 0 Calma 2 Sudoeste 0 -- -- 93
2019-04-20 22:00:00 12.5 0 Calma 4 Sudoeste 0 -- -- 92
2019-04-20 21:00:00 12.7 0 Calma 9 Nordeste 1.6 -- -- 90
2019-04-20 20:00:00 14.1 3 Nordeste 14 Sudoeste 0 -- -- 71
2019-04-20 19:00:00 14.9 5 Sudoeste 17 Sudoeste 0 -- -- 72
2019-04-20 18:00:00 17.5 7 Sur 16 Sur 0 -- -- 66
2019-04-20 17:00:00 15.9 4 Oeste 12 Sudoeste 0 -- -- 71
2019-04-20 16:00:00 14.1 4 Sur 21 Nordeste 0 -- -- 77
2019-04-20 15:00:00 14.5 10 Nordeste 26 Nordeste 0 -- -- 75
2019-04-20 14:00:00 16.9 9 Norte 24 Nordeste 0 -- -- 62
2019-04-20 13:00:00 17.9 5 Nordeste 20 Nordeste 0 -- -- 55
2019-04-20 12:00:00 16.2 7 Nordeste 15 Nordeste 0 -- -- 56
2019-04-20 11:00:00 14.3 4 Nordeste 10 Nordeste 0 -- -- 66
2019-04-20 10:00:00 12.2 4 Nordeste 13 Este 0 -- -- 74
2019-04-20 09:00:00 10.2 0 Calma 3 Oeste 0 -- -- 83
2019-04-20 08:00:00 9.4 2 Sudoeste 5 Sur 0 -- -- 81
2019-04-20 07:00:00 9.4 2 Sur 4 Sudoeste 0 -- -- 82
2019-04-20 06:00:00 9.4 0 Calma 5 Oeste 0 -- -- 84
2019-04-20 05:00:00 9.2 0 Calma 3 Oeste 0 -- -- 86
2019-04-20 04:00:00 9.3 0 Calma 4 Oeste 0 -- -- 85
2019-04-20 03:00:00 11.1 2 Norte 19 Nordeste 0 -- -- 77
2019-04-20 02:00:00 11.2 9 Nordeste 17 Nordeste 0 -- -- 76
2019-04-20 01:00:00 11.2 5 Nordeste 13 Este 0 -- -- 78
2019-04-20 00:00:00 11 2 Nordeste 10 Este 0 -- -- 83
2019-04-19 23:00:00 11.8 3 Nordeste 9 Nordeste 0 -- -- 82
2019-04-19 22:00:00 12.8 9 Nordeste 16 Norte 0 -- -- 77
2019-04-19 21:00:00 12.8 0 Calma 4 Sur 0 -- -- 87
2019-04-19 20:00:00 13.7 2 Nordeste 4 Este 0 -- -- 82
2019-04-19 19:00:00 13.7 3 Nordeste 18 Norte 1 -- -- 79
2019-04-19 18:00:00 15.7 11 Nordeste 20 Nordeste 0 -- -- 62
2019-04-19 17:00:00 17.3 9 Sudoeste 21 Sudoeste 0 -- -- 59
2019-04-19 16:00:00 17.4 7 Sudoeste 26 Sudoeste 0 -- -- 64
2019-04-19 15:00:00 15.8 3 Sudoeste 25 Nordeste 0 -- -- 61
2019-04-19 14:00:00 12.7 12 Nordeste 22 Norte 0.6 -- -- 78
2019-04-19 13:00:00 13.1 8 Norte 20 Este 0.2 -- -- 76
2019-04-19 12:00:00 14.3 6 Nordeste 15 Sudoeste 0 -- -- 66
2019-04-19 11:00:00 15.6 5 Sudoeste 11 Sudoeste 0 -- -- 55
2019-04-19 10:00:00 13.8 2 Este 5 Nordeste 0 -- -- 60
2019-04-19 09:00:00 10.1 2 Norte 6 Nordeste 0 -- -- 76
2019-04-19 08:00:00 8.8 2 Nordeste 4 Nordeste 0 -- -- 81
2019-04-19 07:00:00 9.4 4 Nordeste 8 Este 0 -- -- 78
2019-04-19 06:00:00 10.1 4 Nordeste 5 Nordeste 0 -- -- 77
2019-04-19 05:00:00 10 0 Calma 3 Norte 0 -- -- 76
2019-04-19 04:00:00 10.3 0 Calma 6 Nordeste 0 -- -- 76
2019-04-19 03:00:00 10.2 3 Nordeste 9 Este 0 -- -- 75
2019-04-19 02:00:00 11 3 Este 12 Norte 0 -- -- 67
2019-04-19 01:00:00 11.2 2 Sudeste 12 Sur 0 -- -- 69
2019-04-19 00:00:00 11.1 4 Sur 8 Sur 0 -- -- 70
2019-04-18 23:00:00 11.6 5 Oeste 16 Oeste 0 -- -- 71
2019-04-18 22:00:00 11.8 8 Sudoeste 21 Sur 0 -- -- 69
2019-04-18 21:00:00 11.4 5 Sudoeste 18 Oeste 0 -- -- 77
2019-04-18 20:00:00 14 10 Sudoeste 27 Sudoeste 0.2 -- -- 74
2019-04-18 19:00:00 15.1 5 Sudoeste 32 Sudoeste 0 -- -- 75
2019-04-18 18:00:00 15 6 Sudoeste 16 Nordeste 1 -- -- 83
2019-04-18 17:00:00 14.8 6 Nordeste 21 Sur 0.2 -- -- 81
2019-04-18 16:00:00 15.5 5 Este 20 Sudoeste 0 -- -- 75
2019-04-18 15:00:00 14.5 6 Sur 17 Sur 0 -- -- 79
2019-04-18 14:00:00 15.7 6 Sudoeste 24 Sudoeste 0 -- -- 74
2019-04-18 13:00:00 15.7 6 Sudoeste 19 Oeste 0 -- -- 72
2019-04-18 12:00:00 12.9 0 Calma 13 Nordeste 0.4 -- -- 90
2019-04-18 11:00:00 11 6 Este 37 Sudoeste 1.4 -- -- 89
2019-04-18 10:00:00 12.8 0 Calma 9 Sur 0 -- -- 86
2019-04-18 09:00:00 10.9 2 Sudeste 5 Nordeste 0 -- -- 96
2019-04-18 08:00:00 10.7 3 Nordeste 6 Nordeste 0 -- -- 95
2019-04-18 07:00:00 10.9 0 Calma 8 Nordeste 0.4 -- -- 92
2019-04-18 06:00:00 11.6 0 Calma 8 Nordeste 0.8 -- -- 92
2019-04-18 05:00:00 12.3 0 Calma 15 Sudoeste 0 -- -- 81
2019-04-18 04:00:00 12.8 9 Sudoeste 18 Sudoeste 0 -- -- 83
2019-04-18 03:00:00 13.2 4 Sudoeste 8 Sudoeste 0 -- -- 83
2019-04-18 02:00:00 13.5 3 Sudoeste 8 Sur 0 -- -- 84
2019-04-18 01:00:00 13.9 2 Nordeste 8 Nordeste 0 -- -- 68
2019-04-18 00:00:00 14.2 3 Sur 15 Nordeste 0 -- -- 70
2019-04-17 23:00:00 14.2 5 Norte 16 Sudoeste 0 -- -- 81
2019-04-17 22:00:00 13.6 2 Norte 13 Sudoeste 0 -- -- 90
2019-04-17 21:00:00 13.9 4 Sur 11 Sur 0 -- -- 86
2019-04-17 20:00:00 14.3 0 Calma 16 Sudoeste 0 -- -- 83
2019-04-17 19:00:00 15.3 3 Sudoeste 12 Sudoeste 0 -- -- 75
2019-04-17 18:00:00 15.1 4 Este 14 Nordeste 0 -- -- 76
2019-04-17 17:00:00 15.2 6 Nordeste 21 Nordeste 0 -- -- 75
2019-04-17 16:00:00 15.9 6 Nordeste 18 Este 0 -- -- 74
2019-04-17 15:00:00 15.8 6 Este 22 Nordeste 0 -- -- 76
2019-04-17 14:00:00 16.1 9 Este 27 Nordeste 0 -- -- 76
2019-04-17 13:00:00 15.4 8 Este 27 Este 0 -- -- 81
2019-04-17 12:00:00 14.3 8 Nordeste 23 Nordeste 0 -- -- 85
2019-04-17 11:00:00 15.4 7 Este 31 Nordeste 0 -- -- 72
2019-04-17 10:00:00 14.8 7 Este 22 Nordeste 0 -- -- 73
2019-04-17 09:00:00 13.6 4 Este 15 Nordeste 0 -- -- 78
2019-04-17 08:00:00 13.6 3 Nordeste 22 Este 0 -- -- 64
2019-04-17 07:00:00 13.5 5 Nordeste 20 Nordeste 0 -- -- 59
2019-04-17 06:00:00 13.8 4 Este 22 Nordeste 0 -- -- 53
2019-04-17 05:00:00 14.5 8 Nordeste 26 Nordeste 0 -- -- 53
2019-04-17 04:00:00 14 11 Nordeste 22 Nordeste 0 -- -- 59
2019-04-17 03:00:00 13.4 5 Nordeste 17 Nordeste 0 -- -- 61
2019-04-17 02:00:00 13.2 5 Nordeste 12 Este 0 -- -- 52
2019-04-17 01:00:00 13.3 4 Este 15 Nordeste 0 -- -- 50
2019-04-17 00:00:00 12.9 3 Nordeste 9 Nordeste 0 -- -- 67
2019-04-16 23:00:00 13.7 3 Nordeste 5 Este 0 -- -- 66
2019-04-16 22:00:00 14.5 3 Este 10 Este 0 -- -- 64
2019-04-16 21:00:00 15.8 2 Nordeste 5 Norte 0 -- -- 64
2019-04-16 20:00:00 17.2 5 Norte 12 Este 0 -- -- 55
2019-04-16 19:00:00 18 5 Nordeste 18 Nordeste 0 -- -- 50
2019-04-16 18:00:00 19.1 4 Nordeste 16 Nordeste 0 -- -- 44
2019-04-16 17:00:00 19.9 6 Nordeste 18 Nordeste 0 -- -- 44
2019-04-16 16:00:00 19.9 9 Nordeste 22 Nordeste 0 -- -- 46
2019-04-16 15:00:00 20.9 12 Nordeste 25 Nordeste 0 -- -- 40
2019-04-16 14:00:00 21.2 8 Nordeste 19 Sudoeste 0 -- -- 40
2019-04-16 13:00:00 21.5 8 Sur 18 Sur 0 -- -- 40
2019-04-16 12:00:00 20.5 3 Norte 13 Nordeste 0 -- -- 40
2019-04-16 11:00:00 19 5 Nordeste 17 Nordeste 0 -- -- 50
2019-04-16 10:00:00 17.3 6 Norte 17 Nordeste 0 -- -- 55
2019-04-16 09:00:00 14.4 8 Nordeste 14 Nordeste 0 -- -- 53
2019-04-16 08:00:00 12.3 0 Calma 14 Nordeste 0 -- -- 65
2019-04-16 07:00:00 13.9 8 Nordeste 15 Nordeste 0 -- -- 62
2019-04-16 06:00:00 13.6 4 Nordeste 14 Nordeste 0 -- -- 61
2019-04-16 05:00:00 14.6 0 Calma 27 Norte 0 -- -- 60
2019-04-16 04:00:00 13 2 Sur 6 Sur 0 -- -- 72
2019-04-16 03:00:00 12.6 0 Calma 6 Sur 0 -- -- 73
2019-04-16 02:00:00 13.6 0 Calma 10 Sur 0 -- -- 67
2019-04-16 01:00:00 14.1 3 Sudoeste 12 Oeste 0 -- -- 68
2019-04-16 00:00:00 15.4 4 Sudoeste 17 Sudoeste 0 -- -- 65
2019-04-15 23:00:00 16.7 7 Sudoeste 27 Sudoeste 0 -- -- 62
2019-04-15 22:00:00 17.6 9 Sudoeste 45 Oeste 0 -- -- 58
2019-04-15 21:00:00 19.3 13 Sudoeste 30 Sudoeste 0 -- -- 47
2019-04-15 20:00:00 21.6 17 Sudoeste 39 Sudoeste 0 -- -- 38
2019-04-15 19:00:00 23.9 20 Sudoeste 45 Sudoeste 0 -- -- 29
2019-04-15 18:00:00 25.4 17 Sudoeste 36 Sudoeste 0 -- -- 28
2019-04-15 17:00:00 24.9 14 Sudoeste 30 Oeste 0 -- -- 39
2019-04-15 16:00:00 24.5 14 Sudoeste 24 Sudoeste 0 -- -- 36
2019-04-15 15:00:00 23.6 13 Sudoeste 24 Sudoeste 0 -- -- 33
2019-04-15 14:00:00 23.7 9 Sudoeste 20 Sudoeste 0 -- -- 34
2019-04-15 13:00:00 22.4 9 Sudoeste 17 Sudoeste 0 -- -- 44
2019-04-15 12:00:00 21.9 9 Sudoeste 13 Sudoeste 0 -- -- 44
2019-04-15 11:00:00 20 4 Sudoeste 8 Sudoeste 0 -- -- 51
2019-04-15 10:00:00 18.6 0 Calma 9 Nordeste 0 -- -- 55
2019-04-15 09:00:00 15.7 4 Este 10 Este 0 -- -- 63
2019-04-15 08:00:00 14.4 0 Calma 4 Noroeste 0 -- -- 64
2019-04-15 07:00:00 -- 0 Calma -- -- -- -- -- --
2019-04-15 06:00:00 15.8 0 Calma 6 Nordeste 0 -- -- 57
2019-04-15 05:00:00 15.5 0 Calma 5 Nordeste 0 -- -- 52
2019-04-15 04:00:00 15.9 0 Calma 3 Sudoeste 0 -- -- 61
2019-04-15 03:00:00 16.4 0 Calma 6 Nordeste 0 -- -- 59
2019-04-15 02:00:00 16.9 2 Este 6 Sudoeste 0 -- -- 57
2019-04-15 01:00:00 17.7 -- -- -- -- 0 -- -- 53
2019-04-15 00:00:00 18 0 Calma 4 Sudoeste 0 -- -- 53
2019-04-14 23:00:00 18.7 0 Calma 3 Sudeste 0 -- -- 47
2019-04-14 22:00:00 18.9 0 Calma 4 Nordeste 0 -- -- 47
2019-04-14 21:00:00 19.9 0 Calma 4 Sudoeste 0 -- -- 47
2019-04-14 20:00:00 21.6 -- -- -- -- -- -- -- --
2019-04-14 19:00:00 23.6 8 Sudoeste 15 Sudoeste 0 -- -- 36
2019-04-14 18:00:00 24 7 Sudoeste 17 Sudoeste 0 -- -- 36
2019-04-14 17:00:00 24.4 9 Sudoeste 19 Sur 0 -- -- 34
2019-04-14 16:00:00 24.1 7 Sudoeste 18 Sudoeste 0 -- -- 32
2019-04-14 15:00:00 24 8 Sur 21 Sudoeste 0 -- -- 33
2019-04-14 14:00:00 23.5 7 Sur 17 Sudoeste 0 -- -- 33
2019-04-14 13:00:00 22.6 7 Sudoeste 16 Sur 0 -- -- 35
2019-04-14 12:00:00 22.5 6 Sudoeste 13 Sudoeste 0 -- -- 38
2019-04-14 11:00:00 21.1 4 Sudoeste 8 Sudoeste 0 -- -- 41
2019-04-14 10:00:00 18.7 3 Nordeste 6 Nordeste 0 -- -- 44
2019-04-14 09:00:00 15.3 0 Calma 13 Nordeste 0 -- -- 55
2019-04-14 08:00:00 14.1 4 Este 8 Nordeste 0 -- -- 55
2019-04-14 07:00:00 14.2 3 Nordeste 7 Nordeste 0 -- -- 54
2019-04-14 06:00:00 14.2 0 Calma 8 Nordeste 0 -- -- 53
2019-04-14 05:00:00 14.5 5 Nordeste 8 Nordeste 0 -- -- 51
2019-04-14 04:00:00 15.1 4 Nordeste 6 Este 0 -- -- 48
2019-04-14 03:00:00 14.8 4 Nordeste 6 Nordeste 0 -- -- 47
2019-04-14 02:00:00 14.4 0 Calma 2 Nordeste 0 -- -- 50
2019-04-14 01:00:00 14.6 0 Calma 4 Nordeste 0 -- -- 51
2019-04-14 00:00:00 15 2 Nordeste 9 Nordeste 0 -- -- 54
2019-04-13 23:00:00 15.5 5 Este 8 Nordeste 0 -- -- 52
2019-04-13 22:00:00 15.8 0 Calma 5 Nordeste 0 -- -- 59
2019-04-13 21:00:00 17.4 4 Este 8 Nordeste 0 -- -- 56
2019-04-13 20:00:00 19 5 Nordeste 13 Nordeste 0 -- -- 50
2019-04-13 19:00:00 19.6 5 Nordeste 16 Sudoeste 0 -- -- 47
2019-04-13 18:00:00 21.6 7 Sur 23 Sudoeste 0 -- -- 42
2019-04-13 17:00:00 22.6 11 Sudoeste 25 Sudoeste 0 -- -- 37
2019-04-13 16:00:00 22.5 13 Sudoeste 26 Sudoeste 0 -- -- 34
2019-04-13 15:00:00 22.3 9 Sudoeste 22 Sudoeste 0 -- -- 35
2019-04-13 14:00:00 22.1 9 Sudoeste 21 Sudoeste 0 -- -- 35
2019-04-13 13:00:00 21.4 9 Sudoeste 21 Sudoeste 0 -- -- 32
2019-04-13 12:00:00 20.6 7 Sur 18 Sudoeste 0 -- -- 34
2019-04-13 11:00:00 19.1 8 Sudoeste 18 Sudoeste 0 -- -- 35
2019-04-13 10:00:00 16.2 2 Sudoeste 6 Sudoeste 0 -- -- 42
2019-04-13 09:00:00 13.6 0 Calma 4 Nordeste 0 -- -- 47
2019-04-13 08:00:00 11.9 3 Nordeste 5 Nordeste 0 -- -- 49
2019-04-13 07:00:00 11.8 0 Calma 4 Nordeste 0 -- -- 52
2019-04-13 06:00:00 12.2 2 Este 3 Este 0 -- -- 52
2019-04-13 05:00:00 12.7 0 Calma 6 Nordeste 0 -- -- 50
2019-04-13 04:00:00 12.3 0 Calma 3 Este 0 -- -- 52
2019-04-13 03:00:00 12.6 0 Calma 3 Nordeste 0 -- -- 52
2019-04-13 02:00:00 12.8 2 Sudoeste 6 Sudoeste 0 -- -- 51
2019-04-13 01:00:00 12.9 3 Sur 6 Sur 0 -- -- 48
2019-04-13 00:00:00 13.4 0 Calma 5 Sudeste 0 -- -- 51
2019-04-12 23:00:00 15.3 3 Sudeste 21 Norte 0 -- -- 43
2019-04-12 22:00:00 15.8 3 Sur 15 Norte 0 -- -- 53
2019-04-12 21:00:00 15.8 0 Calma 9 Este 0 -- -- 56
2019-04-12 20:00:00 17.3 6 Nordeste 12 Sudoeste 0 -- -- 51
2019-04-12 19:00:00 19.4 6 Sur 18 Sudoeste 0 -- -- 47
2019-04-12 18:00:00 20.9 9 Sudoeste 21 Oeste 0 -- -- 38
2019-04-12 17:00:00 22.3 8 Sudoeste 22 Sudoeste 0 -- -- 34
2019-04-12 16:00:00 21.4 12 Sudoeste 25 Sudoeste 0 -- -- 36
2019-04-12 15:00:00 21 10 Sudoeste 25 Sudoeste 0 -- -- 35
2019-04-12 14:00:00 19.9 12 Sudoeste 22 Sudoeste 0 -- -- 32
2019-04-12 13:00:00 19.4 6 Sur 21 Sudoeste 0 -- -- 35
2019-04-12 12:00:00 19.2 5 Sudoeste 21 Nordeste 0 -- -- 33
2019-04-12 11:00:00 17.9 6 Nordeste 20 Nordeste 0 -- -- 38
2019-04-12 10:00:00 16.6 5 Nordeste 15 Norte 0 -- -- 39
2019-04-12 09:00:00 14.6 6 Norte 21 Norte 0 -- -- 41
2019-04-12 08:00:00 13.6 7 Norte 16 Nordeste 0 -- -- 41
2019-04-12 07:00:00 13 8 Nordeste 13 Norte 0 -- -- 44
2019-04-12 06:00:00 11.8 3 Nordeste 9 Nordeste 0 -- -- 58
2019-04-12 05:00:00 13.1 3 Nordeste 10 Norte 0 -- -- 55
2019-04-12 04:00:00 14.2 2 Norte 14 Norte 0 -- -- 50
2019-04-12 03:00:00 13.9 3 Nordeste 20 Noroeste 0 -- -- 52
2019-04-12 02:00:00 13.1 5 Sudoeste 14 Oeste 0 -- -- 57
2019-04-12 01:00:00 12.8 0 Calma 7 Noroeste 0 -- -- 57
2019-04-12 00:00:00 13.3 2 Sur 12 Oeste 0 -- -- 57
2019-04-11 23:00:00 13.3 3 Este 5 Este 0 -- -- 55
2019-04-11 22:00:00 14.1 2 Este 8 Sudoeste 0 -- -- 51
2019-04-11 21:00:00 15.9 4 Nordeste 15 Sudoeste 0 -- -- 42
2019-04-11 20:00:00 17.7 4 Oeste 24 Noroeste 0 -- -- 37
2019-04-11 19:00:00 18.9 10 Noroeste 29 Sudoeste 0 -- -- 39
2019-04-11 18:00:00 21.9 11 Sudoeste 27 Sudoeste 0 -- -- 35
2019-04-11 17:00:00 23.5 8 Sudoeste 26 Sudoeste 0 -- -- 34
2019-04-11 16:00:00 22.6 9 Sudoeste 32 Sudoeste 0 -- -- 32
2019-04-11 15:00:00 20.3 13 Sudoeste 34 Sudoeste 0 -- -- 40
2019-04-11 14:00:00 19.4 12 Sudoeste 27 Sudoeste 0 -- -- 38
2019-04-11 13:00:00 19.6 7 Sudoeste 29 Sudoeste 0 -- -- 37
2019-04-11 12:00:00 17.7 13 Sudoeste 28 Sudoeste 0 -- -- 41
2019-04-11 11:00:00 16.4 2 Este 10 Sur 0 -- -- 45
2019-04-11 10:00:00 13.4 0 Calma 11 Nordeste 0 -- -- 58
2019-04-11 09:00:00 11.6 8 Nordeste 18 Nordeste 0 -- -- 58
2019-04-11 08:00:00 9 3 Este 7 Nordeste 0 -- -- 67
2019-04-11 07:00:00 9.3 3 Nordeste 9 Este 0 -- -- 66
2019-04-11 06:00:00 9.4 5 Nordeste 8 Nordeste 0 -- -- 68
2019-04-11 05:00:00 9.9 4 Este 10 Este 0 -- -- 67
2019-04-11 04:00:00 10.3 3 Nordeste 12 Sur 0 -- -- 66
2019-04-11 03:00:00 11.6 6 Sudeste 13 Sudeste 0 -- -- 59
2019-04-11 02:00:00 11.9 4 Sudoeste 20 Oeste 0 -- -- 61
2019-04-11 01:00:00 13.5 6 Oeste 26 Oeste 0 -- -- 53
2019-04-11 00:00:00 12.8 4 Noroeste 14 Norte 0 -- -- 58
2019-04-10 23:00:00 12.2 2 Sudoeste 8 Sur 0 -- -- 72
2019-04-10 22:00:00 13.4 3 Sudoeste 8 Sur 0 -- -- 66
2019-04-10 21:00:00 14.2 2 Sur 13 Sudoeste 0 -- -- 58
2019-04-10 20:00:00 16 11 Sudoeste 26 Sudoeste 0 -- -- 50
2019-04-10 19:00:00 17.4 7 Sudoeste 31 Sudoeste 0 -- -- 43
2019-04-10 18:00:00 17.8 11 Sudoeste 48 Sudoeste 0 -- -- 42
2019-04-10 17:00:00 19.2 11 Sudoeste 34 Oeste 0 -- -- 38
2019-04-10 16:00:00 19.5 13 Sudoeste 38 Sudoeste 0 -- -- 41
2019-04-10 15:00:00 18.5 7 Oeste 26 Sudoeste 0 -- -- 44
2019-04-10 14:00:00 18.1 13 Sudoeste 37 Sudoeste 0 -- -- 40
2019-04-10 13:00:00 17 13 Sudoeste 34 Sudoeste 0 -- -- 38
2019-04-10 12:00:00 15.5 6 Sudoeste 29 Nordeste 0 -- -- 50
2019-04-10 11:00:00 13.2 12 Norte 36 Nordeste 0 -- -- 52
2019-04-10 10:00:00 12.1 10 Nordeste 33 Nordeste 0 -- -- 57
2019-04-10 09:00:00 10.4 11 Norte 36 Norte 0 -- -- 63
2019-04-10 08:00:00 9.6 10 Norte 24 Norte 0 -- -- 66
2019-04-10 07:00:00 10.1 7 Norte 24 Norte 0 -- -- 63
2019-04-10 06:00:00 10.3 7 Norte 20 Norte 0 -- -- 64
2019-04-10 05:00:00 10.1 3 Este 14 Oeste 0 -- -- 70
2019-04-10 04:00:00 10.2 3 Sudoeste 11 Oeste 0 -- -- 72
2019-04-10 03:00:00 10 0 Calma 8 Sudoeste 0 -- -- 77
2019-04-10 02:00:00 10.5 2 Sur 8 Sudoeste 0 -- -- 81
2019-04-10 01:00:00 10.1 0 Calma 5 Oeste 0 -- -- 79
2019-04-10 00:00:00 10.8 3 Sudoeste 12 Sudoeste 0 -- -- 76
2019-04-09 23:00:00 11.5 4 Sudoeste 18 Sudoeste 0 -- -- 72
2019-04-09 22:00:00 12.5 8 Sudoeste 22 Sudoeste 0 -- -- 68
2019-04-09 21:00:00 13.4 8 Sudoeste 32 Sudoeste 0 -- -- 60
2019-04-09 20:00:00 15.5 13 Sudoeste 37 Sudoeste 0 -- -- 55
2019-04-09 19:00:00 16.3 14 Sudoeste 34 Sudoeste 0 -- -- 54
2019-04-09 18:00:00 17.7 18 Sudoeste 50 Sudoeste 0 -- -- 47
2019-04-09 17:00:00 19.1 9 Oeste 41 Noroeste 0 -- -- 45
2019-04-09 16:00:00 18.1 12 Sudoeste 32 Sudoeste 0 -- -- 45
2019-04-09 15:00:00 16.5 11 Sudoeste 39 Oeste 0 -- -- 49
2019-04-09 14:00:00 15.2 14 Sudoeste 34 Sudoeste 0 -- -- 56
2019-04-09 13:00:00 14.9 12 Oeste 32 Oeste 0 -- -- 57
2019-04-09 12:00:00 13.9 10 Sudoeste 22 Sudoeste 0 -- -- 64
2019-04-09 11:00:00 13.1 9 Sudoeste 23 Sudoeste 0 -- -- 63
2019-04-09 10:00:00 9.8 8 Sudoeste 15 Sudoeste 0 -- -- 76
2019-04-09 09:00:00 8.4 2 Sudoeste 10 Oeste 0 -- -- 77
2019-04-09 08:00:00 7.9 0 Calma 12 Sudeste 0 -- -- 76
2019-04-09 07:00:00 7.7 0 Calma 5 Sudoeste 0 -- -- 76
2019-04-09 06:00:00 7.9 0 Calma 4 Nordeste 0 -- -- 78
2019-04-09 05:00:00 9 0 Calma 15 Oeste 0 -- -- 74
2019-04-09 04:00:00 10 4 Oeste 18 Oeste 0 -- -- 71
2019-04-09 03:00:00 9.9 3 Oeste 12 Oeste 0 -- -- 76
2019-04-09 02:00:00 10.4 4 Oeste 18 Sudoeste 0 -- -- 78
2019-04-09 01:00:00 11.2 8 Sudoeste 28 Sudoeste 0 -- -- 73
2019-04-09 00:00:00 12.1 12 Sudoeste 35 Sudoeste 0 -- -- 68
2019-04-08 23:00:00 12.6 12 Sudoeste 27 Sudoeste 0 -- -- 72
2019-04-08 22:00:00 13 11 Sudoeste 26 Sudoeste 0 -- -- 77
2019-04-08 21:00:00 12.9 10 Sudoeste 26 Sudoeste 0 -- -- 81
2019-04-08 20:00:00 13.2 12 Sudoeste 21 Sudoeste 0 -- -- 85
2019-04-08 19:00:00 14.1 10 Sudoeste 24 Sudoeste 0 -- -- 78
2019-04-08 18:00:00 15.2 17 Sudoeste 39 Sudoeste 0 -- -- 70
2019-04-08 17:00:00 16.1 14 Sudoeste 34 Sudoeste 0 -- -- 67
2019-04-08 16:00:00 16.8 13 Sudoeste 32 Oeste 0 -- -- 66
2019-04-08 15:00:00 16.5 18 Sudoeste 33 Sudoeste 0 -- -- 73
2019-04-08 14:00:00 17.6 15 Sudoeste 33 Sudoeste 0 -- -- 65
2019-04-08 13:00:00 15.5 12 Sudoeste 43 Sudoeste 0 -- -- 73
2019-04-08 12:00:00 14.5 14 Sudoeste 34 Sudoeste 0 -- -- 76
2019-04-08 11:00:00 15 6 Sudoeste 24 Sudoeste 0 -- -- 72
2019-04-08 10:00:00 13.4 9 Sudoeste 26 Sudoeste 0 -- -- 78
2019-04-08 09:00:00 11.7 10 Sudoeste 27 Sudoeste 0 -- -- 83
2019-04-08 08:00:00 11.4 10 Sudoeste 19 Sudoeste 0.2 -- -- 90
2019-04-08 07:00:00 11.3 6 Sudoeste 18 Sudoeste 0 -- -- 92
2019-04-08 06:00:00 11 7 Sudoeste 15 Sudoeste 0 -- -- 92
2019-04-08 05:00:00 11.2 7 Oeste 21 Oeste 0 -- -- 89
2019-04-08 04:00:00 11.2 6 Sudoeste 20 Sudoeste 0 -- -- 90
2019-04-08 03:00:00 11.3 5 Sudoeste 26 Sudoeste 0 -- -- 91
2019-04-08 02:00:00 11.2 8 Sudoeste 18 Sudoeste 0 -- -- 93
2019-04-08 01:00:00 11.3 6 Sudoeste 18 Oeste 0 -- -- 92
2019-04-08 00:00:00 11.4 8 Sudoeste 22 Noroeste 0 -- -- 95
2019-04-07 23:00:00 11.8 8 Sudoeste 32 Sudoeste 0.2 -- -- 98
2019-04-07 22:00:00 12 4 Sudoeste 14 Sudoeste 0.6 -- -- 98
2019-04-07 21:00:00 11.9 5 Sudoeste 14 Sudoeste 0.8 -- -- 98
2019-04-07 20:00:00 11.9 10 Sudoeste 15 Sudoeste 1.8 -- -- 97
2019-04-07 19:00:00 12.3 8 Sudoeste 17 Sudoeste 0.8 -- -- 95
2019-04-07 18:00:00 12.6 11 Sudoeste 26 Sudoeste 0.2 -- -- 89
2019-04-07 17:00:00 13.2 16 Sudoeste 28 Sudoeste 0 -- -- 78
2019-04-07 16:00:00 13.5 19 Sudoeste 35 Sudoeste 0 -- -- 72
2019-04-07 15:00:00 12.8 14 Sudoeste 30 Sudoeste 0 -- -- 78
2019-04-07 14:00:00 12.8 5 Sudoeste 24 Sudoeste 0 -- -- 76
2019-04-07 13:00:00 12.6 15 Sudoeste 40 Sudoeste 0 -- -- 74
2019-04-07 12:00:00 12.9 12 Sudoeste 32 Sudoeste 0 -- -- 66
2019-04-07 11:00:00 11.6 10 Sudoeste 35 Sudoeste 0 -- -- 70
2019-04-07 10:00:00 10.5 11 Sudoeste 27 Sudoeste 0 -- -- 77
2019-04-07 09:00:00 9.6 12 Sudoeste 25 Sudoeste 0 -- -- 78
2019-04-07 08:00:00 9.2 10 Sudoeste 27 Sudoeste 0 -- -- 80
2019-04-07 07:00:00 8.9 12 Sudoeste 30 Sudoeste 0 -- -- 80
2019-04-07 06:00:00 8.5 9 Sudoeste 32 Sudoeste 0 -- -- 86
2019-04-07 05:00:00 8.4 9 Sudoeste 27 Sudoeste 0.4 -- -- 92
2019-04-07 04:00:00 8.3 5 Sudoeste 21 Sudoeste 0 -- -- 88
2019-04-07 03:00:00 8.4 6 Sudoeste 23 Sudoeste 0.4 -- -- 91
2019-04-07 02:00:00 8.6 7 Sudoeste 16 Oeste 0 -- -- 90
2019-04-07 01:00:00 8.6 9 Sudoeste 26 Sur 0.4 -- -- 90
2019-04-07 00:00:00 8.9 14 Sudoeste 32 Oeste 0.4 -- -- 87
2019-04-06 23:00:00 9.3 9 Sudoeste 37 Sudoeste 0.2 -- -- 82
2019-04-06 22:00:00 10.2 16 Sudoeste 42 Sudoeste 0 -- -- 70
2019-04-06 21:00:00 10.4 16 Sudoeste 46 Oeste 0 -- -- 69
2019-04-06 20:00:00 11 22 Sudoeste 52 Sudoeste 0.2 -- -- 68
2019-04-06 19:00:00 12 17 Sudoeste 64 Sudoeste 0 -- -- 73
2019-04-06 18:00:00 14.4 13 Sudoeste 48 Oeste 0 -- -- 63
2019-04-06 17:00:00 12.4 17 Sudoeste 44 Oeste 0 -- -- 70
2019-04-06 16:00:00 11.2 19 Sudoeste 33 Sudoeste 0 -- -- 75
2019-04-06 15:00:00 10 12 Sudoeste 32 Sudoeste 0.4 -- -- 77
2019-04-06 14:00:00 10.9 9 Sudoeste 33 Sur 0 -- -- 73
2019-04-06 13:00:00 10.8 17 Sudoeste 33 Sudoeste 0 -- -- 74
2019-04-06 12:00:00 10.2 10 Sudoeste 21 Sur 0 -- -- 73
2019-04-06 11:00:00 9.8 8 Sudoeste 18 Sudoeste 0.2 -- -- 78
2019-04-06 10:00:00 9 9 Sudoeste 20 Sudoeste 0 -- -- 82
2019-04-06 09:00:00 7.5 8 Sudoeste 19 Oeste 0.2 -- -- 86
2019-04-06 08:00:00 7.7 10 Sudoeste 33 Oeste 0 -- -- 85
2019-04-06 07:00:00 8.2 12 Sudoeste 23 Sudoeste 0 -- -- 79
2019-04-06 06:00:00 8.4 9 Sudoeste 32 Sudoeste 0 -- -- 73
2019-04-06 05:00:00 8.4 13 Sudoeste 27 Sudoeste 0 -- -- 67
2019-04-06 04:00:00 8.5 8 Sudoeste 30 Sudoeste 0 -- -- 66
2019-04-06 03:00:00 8.8 16 Sudoeste 43 Oeste 0 -- -- 64
2019-04-06 02:00:00 8.8 15 Sudoeste 40 Sudoeste 0 -- -- 65
2019-04-06 01:00:00 9 15 Sudoeste 39 Sur 0 -- -- 64
2019-04-06 00:00:00 9 10 Sudoeste 29 Sudoeste 0 -- -- 65
2019-04-05 23:00:00 8.9 15 Sudoeste 31 Sudoeste 0 -- -- 71
2019-04-05 22:00:00 9.6 10 Oeste 36 Noroeste 0 -- -- 72
2019-04-05 21:00:00 9.8 12 Sudoeste 36 Sudoeste 0 -- -- 67
2019-04-05 20:00:00 11.4 15 Sudoeste 46 Sudoeste 0 -- -- 57
2019-04-05 19:00:00 13.1 19 Sudoeste 46 Sudoeste 0 -- -- 52
2019-04-05 18:00:00 13.8 16 Sudoeste 48 Sudoeste 0 -- -- 51
2019-04-05 17:00:00 14.9 12 Sudoeste 54 Sudoeste 0 -- -- 53
2019-04-05 16:00:00 13.9 19 Sudoeste 50 Oeste 0 -- -- 55
2019-04-05 15:00:00 12 21 Sudoeste 44 Sudoeste 0 -- -- 64
2019-04-05 14:00:00 10.2 15 Sudoeste 33 Sudoeste 0.4 -- -- 92
2019-04-05 13:00:00 9 8 Sudoeste 19 Sudoeste 4.4 -- -- 96
2019-04-05 12:00:00 9.5 12 Sur 25 Sudoeste 0.2 -- -- 93
2019-04-05 11:00:00 9.1 16 Sudoeste 38 Sudoeste 0.2 -- -- 94
2019-04-05 10:00:00 8.5 12 Sudoeste 31 Oeste 3.2 -- -- 96
2019-04-05 09:00:00 9.1 9 Sudoeste 21 Sudoeste 3.6 -- -- 97
2019-04-05 08:00:00 8.9 15 Sudoeste 24 Sudoeste 0.6 -- -- 94
2019-04-05 07:00:00 9.3 10 Sudoeste 24 Sudoeste 0.2 -- -- 88
2019-04-05 06:00:00 10.5 13 Sudoeste 30 Sudoeste 0 -- -- 66
2019-04-05 05:00:00 10.6 11 Sudoeste 33 Oeste 0 -- -- 64
2019-04-05 04:00:00 10.3 13 Sudoeste 35 Oeste 0 -- -- 65
2019-04-05 03:00:00 10.1 10 Sudoeste 27 Sudoeste 0 -- -- 64
2019-04-05 02:00:00 10 17 Sudoeste 33 Sudoeste 0 -- -- 64
2019-04-05 01:00:00 9.7 10 Sudoeste 36 Sudoeste 0 -- -- 61
2019-04-05 00:00:00 10 15 Sudoeste 39 Sur 0 -- -- 53
2019-04-04 23:00:00 10.7 13 Sudoeste 41 Sudoeste 0 -- -- 50
2019-04-04 22:00:00 11.5 20 Sudoeste 39 Sudoeste 0 -- -- 50
2019-04-04 21:00:00 12.8 18 Sudoeste 37 Sudoeste 0 -- -- 56
2019-04-04 20:00:00 15.2 19 Sudoeste 33 Sudoeste 0 -- -- 53
2019-04-04 19:00:00 16.2 18 Sudoeste 40 Sudoeste 0 -- -- 49
2019-04-04 18:00:00 17.5 25 Sudoeste 43 Sudoeste 0 -- -- 43
2019-04-04 17:00:00 20.6 20 Sudoeste 39 Sudoeste 0 -- -- 35
2019-04-04 16:00:00 19.9 20 Sudoeste 35 Sudoeste 0 -- -- 35
2019-04-04 15:00:00 20 16 Sudoeste 34 Sudoeste 0 -- -- 37
2019-04-04 14:00:00 18.7 15 Sudoeste 33 Sudoeste 0 -- -- 40
2019-04-04 13:00:00 17.8 13 Sudoeste 28 Sudoeste 0 -- -- 35
2019-04-04 12:00:00 16.3 8 Sudoeste 23 Sudoeste 0 -- -- 40
2019-04-04 11:00:00 13.9 12 Sudoeste 25 Sudoeste 0 -- -- 41
2019-04-04 10:00:00 10.7 0 Calma 6 Sudoeste 0 -- -- 58
2019-04-04 09:00:00 8.1 0 Calma 6 Sur 0 -- -- 64
2019-04-04 08:00:00 8.4 0 Calma 4 Nordeste 0 -- -- 62
2019-04-04 07:00:00 9.7 0 Calma 10 Nordeste 0 -- -- 58
2019-04-04 06:00:00 10.4 2 Nordeste 19 Nordeste 0 -- -- 61
2019-04-04 05:00:00 10.5 4 Nordeste 13 Nordeste 0 -- -- 63
2019-04-04 04:00:00 11 4 Nordeste 15 Nordeste 0 -- -- 61
2019-04-04 03:00:00 12.3 9 Norte 22 Nordeste 0 -- -- 54
2019-04-04 02:00:00 12.6 5 Este 13 Sudeste 0 -- -- 48
2019-04-04 01:00:00 13 5 Este 14 Sudeste 0 -- -- 46
2019-04-04 00:00:00 12.9 4 Sudeste 10 Sudeste 0 -- -- 44
2019-04-03 23:00:00 13 0 Calma 13 Este 0 -- -- 46
2019-04-03 22:00:00 15 5 Nordeste 19 Este 0 -- -- 42
2019-04-03 21:00:00 16.9 3 Sudoeste 25 Oeste 0 -- -- 41
2019-04-03 20:00:00 20.1 11 Sudoeste 30 Sudoeste 0 -- -- 36
2019-04-03 19:00:00 22.3 11 Sudoeste 23 Sudoeste 0 -- -- 36
2019-04-03 18:00:00 23.8 8 Sudoeste 22 Sudoeste 0 -- -- 35
2019-04-03 17:00:00 21.4 5 Sur 22 Sur 0 -- -- 48
2019-04-03 16:00:00 20.9 10 Sur 25 Sudoeste 0 -- -- 50
2019-04-03 15:00:00 22 9 Sudoeste 22 Sudoeste 0 -- -- 48
2019-04-03 14:00:00 20.2 10 Sudoeste 18 Sur 0 -- -- 51
2019-04-03 13:00:00 19.2 8 Sudoeste 20 Sudoeste 0 -- -- 55
2019-04-03 12:00:00 18.9 9 Sur 16 Sur 0 -- -- 57
2019-04-03 11:00:00 18.3 3 Sur 12 Nordeste 0 -- -- 54
2019-04-03 10:00:00 15.2 3 Norte 10 Nordeste 0 -- -- 57
2019-04-03 09:00:00 12.3 6 Nordeste 10 Este 0 -- -- 64
2019-04-03 08:00:00 10.9 3 Nordeste 10 Nordeste 0 -- -- 74
2019-04-03 07:00:00 11.1 2 Norte 6 Nordeste 0 -- -- 75
2019-04-03 06:00:00 12 3 Nordeste 8 Nordeste 0 -- -- 72
2019-04-03 05:00:00 12 5 Nordeste 6 Nordeste 0 -- -- 73
2019-04-03 04:00:00 12.2 4 Este 9 Este 0 -- -- 70
2019-04-03 03:00:00 12.1 4 Este 7 Nordeste 0 -- -- 78
2019-04-03 02:00:00 11.9 3 Nordeste 5 Nordeste 0 -- -- 82
2019-04-03 01:00:00 12.3 0 Calma 9 Nordeste 0 -- -- 82
2019-04-03 00:00:00 12.6 6 Nordeste 8 Nordeste 0 -- -- 84
2019-04-02 23:00:00 13.4 2 Nordeste 4 Norte 0 -- -- 81
2019-04-02 22:00:00 13.4 3 Nordeste 6 Nordeste 0 -- -- 82
2019-04-02 21:00:00 13.7 3 Nordeste 5 Nordeste 0 -- -- 79
2019-04-02 20:00:00 15.4 0 Calma 5 Sudoeste 0 -- -- 70
2019-04-02 19:00:00 15.6 4 Sudoeste 15 Oeste 0 -- -- 71
2019-04-02 18:00:00 16.8 8 Sudoeste 18 Sudoeste 0 -- -- 63
2019-04-02 17:00:00 18.4 8 Sur 17 Sudoeste 0 -- -- 63
2019-04-02 16:00:00 17.8 8 Sur 22 Sudoeste 0 -- -- 66
2019-04-02 15:00:00 17.7 8 Sudoeste 21 Sudoeste 0 -- -- 62
2019-04-02 14:00:00 18.4 7 Sudoeste 18 Sur 0 -- -- 63
2019-04-02 13:00:00 18.3 6 Sur 18 Sudoeste 0 -- -- 57
2019-04-02 12:00:00 17.3 6 Sur 13 Sudoeste 0 -- -- 56
2019-04-02 11:00:00 15.4 2 Sur 3 Sur 0 -- -- 64
2019-04-02 10:00:00 12 0 Calma 3 Sudeste 0 -- -- 79
2019-04-02 09:00:00 9.4 0 Calma 4 Este 0 -- -- 89
2019-04-02 08:00:00 8.9 0 Calma 4 Nordeste 0 -- -- 89
2019-04-02 07:00:00 8.6 0 Calma 5 Nordeste 0 -- -- 90
2019-04-02 06:00:00 8.8 3 Nordeste 5 Nordeste 0 -- -- 89
2019-04-02 05:00:00 8.9 0 Calma 6 Nordeste 0 -- -- 91
2019-04-02 04:00:00 10.4 6 Nordeste 14 Nordeste 0 -- -- 87
2019-04-02 03:00:00 9.1 3 Nordeste 6 Este 0 -- -- 91
2019-04-02 02:00:00 9.9 4 Nordeste 9 Nordeste 0 -- -- 88
2019-04-02 01:00:00 10.1 5 Nordeste 9 Nordeste 0 -- -- 90
2019-04-02 00:00:00 10.5 6 Nordeste 9 Nordeste 0 -- -- 92
2019-04-01 23:00:00 10.5 2 Sur 7 Sur 0 -- -- 93
2019-04-01 22:00:00 11.5 0 Calma 5 Nordeste 0 -- -- 96
2019-04-01 21:00:00 12.5 3 Nordeste 4 Nordeste 0 -- -- 93
2019-04-01 20:00:00 13.7 0 Calma 8 Sudoeste 0 -- -- 91
2019-04-01 19:00:00 14.2 4 Sudoeste 10 Sudoeste 0 -- -- 91
2019-04-01 18:00:00 15.4 5 Sudoeste 14 Oeste 0 -- -- 87
2019-04-01 17:00:00 13.9 2 Nordeste 13 Sur 0 -- -- 90
2019-04-01 16:00:00 13.9 3 Sudoeste 14 Sudoeste 0 -- -- 92
2019-04-01 15:00:00 13 4 Sudoeste 11 Sudoeste 0.6 -- -- 98
2019-04-01 14:00:00 11.9 7 Sur 13 Sur 0.8 -- -- 95
2019-04-01 13:00:00 12.2 8 Sudoeste 19 Sudoeste 2.2 -- -- 97
2019-04-01 12:00:00 12.4 7 Sudoeste 15 Sudoeste 0.2 -- -- 96
2019-04-01 11:00:00 12.1 9 Sudoeste 14 Sudoeste 0 -- -- 98
2019-04-01 10:00:00 11.2 5 Sudoeste 18 Sudoeste 0.2 -- -- 98
2019-04-01 09:00:00 10.3 0 Calma 10 Sudoeste 3.6 -- -- 98
2019-04-01 08:00:00 10.6 7 Sudoeste 23 Sudoeste 1 -- -- 97
2019-04-01 07:00:00 11.3 12 Sudoeste 21 Sur 0 -- -- 99
2019-04-01 06:00:00 10.7 6 Sudoeste 14 Sudoeste 0 -- -- 99
2019-04-01 05:00:00 9.9 0 Calma 3 Nordeste 0 -- -- 98
2019-04-01 04:00:00 10.2 0 Calma 6 Nordeste 0 -- -- 98
2019-04-01 03:00:00 10.6 4 Nordeste 6 Nordeste 0 -- -- 98
2019-04-01 02:00:00 11.2 0 Calma 6 Nordeste 0 -- -- 97
2019-04-01 01:00:00 11.4 0 Calma 5 Nordeste 0 -- -- 98
2019-04-01 00:00:00 11.3 2 Sur 5 Sudeste 0 -- -- 97
2019-03-31 23:00:00 11.6 0 Calma 5 Nordeste 0 -- -- 97
2019-03-31 22:00:00 12.2 0 Calma 5 Norte 0 -- -- 96
2019-03-31 21:00:00 12.4 2 Sudoeste 9 Sudoeste 0 -- -- 96
2019-03-31 20:00:00 12.4 4 Sudoeste 11 Sudoeste 0 -- -- 95
2019-03-31 19:00:00 13.2 5 Sudoeste 14 Sudoeste 0 -- -- 94
2019-03-31 18:00:00 14 3 Sur 9 Sudoeste 1.8 -- -- 95
2019-03-31 17:00:00 14 8 Sudoeste 19 Oeste 1.4 -- -- 92
2019-03-31 16:00:00 15.4 3 Sudoeste 16 Sudoeste 0 -- -- 79
2019-03-31 15:00:00 15.5 10 Sur 23 Sudoeste 0 -- -- 79
2019-03-31 14:00:00 15.8 6 Sudoeste 12 Sudoeste 0 -- -- 80
2019-03-31 13:00:00 14.1 4 Sudoeste 9 Sudoeste 0 -- -- 88
2019-03-31 12:00:00 12.9 4 Sudoeste 8 Sudoeste 0 -- -- 95
2019-03-31 11:00:00 12.1 3 Sudoeste 5 Sudoeste 0 -- -- 98
2019-03-31 10:00:00 11.2 0 Calma 4 Sudeste 0 -- -- 99
2019-03-31 09:00:00 10.7 0 Calma 3 Oeste 0 -- -- 98
2019-03-31 08:00:00 10.7 0 Calma 2 Sudoeste 0.4 -- -- 98
2019-03-31 07:00:00 10.7 0 Calma 3 Sudoeste 0.2 -- -- 98
2019-03-31 06:00:00 10.7 2 Nordeste 4 Sudoeste 0.2 -- -- 98
2019-03-31 05:00:00 10.9 0 Calma 3 Sudoeste 0.8 -- -- 98
2019-03-31 03:00:00 10.7 0 Calma 12 Nordeste 0.2 -- -- 97
2019-03-31 01:00:00 10.9 0 Calma 10 Nordeste 2.4 -- -- 96
2019-03-31 00:00:00 10.9 5 Nordeste 12 Nordeste 0.6 -- -- 95
2019-03-30 23:00:00 11.6 4 Este 16 Nordeste 0 -- -- 88
2019-03-30 22:00:00 11.8 5 Nordeste 23 Nordeste 0 -- -- 83
2019-03-30 21:00:00 10.9 9 Nordeste 18 Nordeste 0 -- -- 91
2019-03-30 20:00:00 11.2 0 Calma 14 Este 0 -- -- 91
2019-03-30 19:00:00 11.4 6 Nordeste 14 Norte 0 -- -- 93
2019-03-30 18:00:00 11.4 2 Nordeste 13 Este 0 -- -- 92
2019-03-30 17:00:00 11.6 3 Nordeste 11 Nordeste 0 -- -- 88
2019-03-30 16:00:00 11.8 3 Este 15 Nordeste 0 -- -- 85
2019-03-30 15:00:00 12.7 7 Nordeste 23 Nordeste 0 -- -- 79
2019-03-30 14:00:00 13.7 5 Nordeste 21 Este 0 -- -- 74
2019-03-30 13:00:00 12.9 6 Nordeste 25 Este 0 -- -- 75
2019-03-30 12:00:00 13.7 10 Nordeste 25 Este 0 -- -- 64
2019-03-30 11:00:00 12.5 8 Este 23 Nordeste 0 -- -- 71
2019-03-30 10:00:00 11.8 5 Nordeste 31 Este 0 -- -- 75
2019-03-30 09:00:00 11.6 15 Nordeste 40 Nordeste 0 -- -- 68
2019-03-30 08:00:00 10.9 15 Nordeste 27 Nordeste 0 -- -- 71
2019-03-30 07:00:00 10.3 4 Nordeste 18 Nordeste 0 -- -- 82
2019-03-30 06:00:00 10.6 5 Nordeste 19 Nordeste 0 -- -- 87
2019-03-30 05:00:00 10.6 4 Nordeste 20 Nordeste 0 -- -- 88
2019-03-30 04:00:00 10.5 5 Sur 19 Nordeste 0 -- -- 87
2019-03-30 03:00:00 10.8 4 Nordeste 16 Nordeste 0 -- -- 88
2019-03-30 02:00:00 10.7 3 Nordeste 24 Este 0 -- -- 85
2019-03-30 01:00:00 11.1 4 Nordeste 15 Nordeste 0 -- -- 85
2019-03-30 00:00:00 11.1 5 Este 17 Nordeste 0 -- -- 84
2019-03-29 23:00:00 11.2 5 Este 21 Este 0 -- -- 84
2019-03-29 22:00:00 10.5 4 Nordeste 20 Este 0 -- -- 85
2019-03-29 21:00:00 10.4 3 Nordeste 16 Norte 0 -- -- 88
2019-03-29 20:00:00 11.1 2 Sur 13 Nordeste 0 -- -- 86
2019-03-29 19:00:00 11.9 5 Este 17 Nordeste 0 -- -- 84
2019-03-29 18:00:00 12.4 4 Este 21 Nordeste 0 -- -- 79
2019-03-29 17:00:00 12.9 8 Nordeste 23 Este 0 -- -- 76
2019-03-29 16:00:00 12 6 Sudeste 27 Nordeste 0 -- -- 79
2019-03-29 15:00:00 12.3 5 Nordeste 19 Este 0 -- -- 77
2019-03-29 14:00:00 12.8 8 Nordeste 26 Nordeste 0 -- -- 73
2019-03-29 13:00:00 13 8 Nordeste 27 Nordeste 0 -- -- 73
2019-03-29 12:00:00 12.3 7 Este 28 Nordeste 0 -- -- 78
2019-03-29 11:00:00 11.8 8 Nordeste 25 Nordeste 0 -- -- 79
2019-03-29 10:00:00 11.5 8 Nordeste 22 Nordeste 0 -- -- 80
2019-03-29 09:00:00 10.8 6 Nordeste 24 Este 0 -- -- 80
2019-03-29 08:00:00 10.7 7 Nordeste 21 Nordeste 0 -- -- 72
2019-03-29 07:00:00 10.5 4 Nordeste 20 Este 0 -- -- 75
2019-03-29 06:00:00 10 4 Nordeste 17 Nordeste 0 -- -- 72
2019-03-29 05:00:00 10.4 5 Nordeste 19 Nordeste 0 -- -- 71
2019-03-29 04:00:00 10.4 6 Nordeste 23 Nordeste 0 -- -- 73
2019-03-29 03:00:00 10.3 6 Nordeste 24 Norte 0 -- -- 64
2019-03-29 02:00:00 10.6 9 Nordeste 28 Nordeste 0 -- -- 52
2019-03-29 01:00:00 10.7 10 Nordeste 31 Este 0 -- -- 56
2019-03-29 00:00:00 10.8 9 Nordeste 26 Nordeste 0 -- -- 63
2019-03-28 23:00:00 11 8 Nordeste 26 Sudeste 0 -- -- 61
2019-03-28 22:00:00 11 11 Nordeste 26 Nordeste 0 -- -- 62
2019-03-28 21:00:00 11.3 6 Nordeste 24 Nordeste 0 -- -- 48
2019-03-28 20:00:00 12.2 15 Nordeste 31 Nordeste 0 -- -- 39
2019-03-28 19:00:00 12.4 5 Sudeste 24 Nordeste 0 -- -- 48
2019-03-28 18:00:00 13.4 9 Este 28 Sudeste 0 -- -- 66
2019-03-28 17:00:00 14.1 9 Este 30 Este 0 -- -- 65
2019-03-28 16:00:00 14.8 10 Este 35 Este 0 -- -- 64
2019-03-28 15:00:00 14.5 12 Este 34 Nordeste 0 -- -- 67
2019-03-28 14:00:00 14.1 11 Nordeste 31 Nordeste 0 -- -- 56
2019-03-28 13:00:00 13.5 11 Nordeste 33 Nordeste 0 -- -- 58
2019-03-28 12:00:00 13.1 10 Este 30 Nordeste 0 -- -- 61
2019-03-28 11:00:00 13 8 Nordeste 35 Nordeste 0 -- -- 59
2019-03-28 10:00:00 12.4 13 Nordeste 37 Nordeste 0 -- -- 61
2019-03-28 09:00:00 11.6 12 Nordeste 31 Nordeste 0 -- -- 64
2019-03-28 08:00:00 10.1 7 Nordeste 28 Norte 0 -- -- 71
2019-03-28 07:00:00 9.6 7 Nordeste 22 Nordeste 0 -- -- 70
2019-03-28 06:00:00 9.6 8 Nordeste 24 Nordeste 0 -- -- 71
2019-03-28 05:00:00 9.7 5 Nordeste 19 Norte 0 -- -- 72
2019-03-28 04:00:00 9.8 5 Nordeste 26 Nordeste 0 -- -- 74
2019-03-28 03:00:00 9.8 4 Nordeste 16 Sudeste 0 -- -- 76
2019-03-28 02:00:00 10.2 4 Este 21 Sudeste 0 -- -- 76
2019-03-28 01:00:00 11 6 Nordeste 23 Nordeste 0 -- -- 79
2019-03-28 00:00:00 11.2 4 Sudeste 20 Nordeste 0 -- -- 78
2019-03-27 23:00:00 11.2 4 Este 19 Nordeste 0 -- -- 80
2019-03-27 22:00:00 11.3 4 Este 17 Este 0 -- -- 79
2019-03-27 21:00:00 11.2 3 Este 19 Nordeste 0 -- -- 74
2019-03-27 20:00:00 11 4 Nordeste 15 Nordeste 0 -- -- 72
2019-03-27 19:00:00 12 5 Este 26 Nordeste 0 -- -- 68
2019-03-27 18:00:00 12.8 13 Nordeste 30 Este 0 -- -- 66
2019-03-27 17:00:00 13.5 11 Nordeste 29 Este 0 -- -- 56
2019-03-27 16:00:00 14.1 13 Nordeste 36 Este 0 -- -- 52
2019-03-27 15:00:00 15 10 Este 35 Nordeste 0 -- -- 46
2019-03-27 14:00:00 14.8 10 Este 40 Nordeste 0 -- -- 44
2019-03-27 13:00:00 14.9 13 Nordeste 42 Nordeste 0 -- -- 44
2019-03-27 12:00:00 14.2 13 Este 36 Este 0 -- -- 46
2019-03-27 11:00:00 13.2 10 Este 33 Nordeste 0 -- -- 54
2019-03-27 10:00:00 11.8 10 Este 34 Este 0 -- -- 62
2019-03-27 09:00:00 11 8 Nordeste 33 Nordeste 0 -- -- 67
2019-03-27 08:00:00 10.5 10 Este 26 Este 0 -- -- 68
2019-03-27 07:00:00 10.4 7 Nordeste 28 Este 0 -- -- 70
2019-03-27 06:00:00 10.2 6 Nordeste 22 Este 0 -- -- 67
2019-03-27 05:00:00 10.2 5 Nordeste 22 Nordeste 0 -- -- 68
2019-03-27 04:00:00 10.7 9 Nordeste 33 Nordeste 0 -- -- 69
2019-03-27 03:00:00 11 5 Sudeste 32 Este 0 -- -- 75
2019-03-27 02:00:00 11.3 8 Este 22 Este 0 -- -- 78
2019-03-27 01:00:00 11.6 3 Sudeste 24 Este 0 -- -- 73
2019-03-27 00:00:00 11.8 5 Este 18 Nordeste 0 -- -- 67
2019-03-26 23:00:00 12.4 4 Oeste 18 Nordeste 0 -- -- 72
2019-03-26 22:00:00 12.6 3 Sudoeste 15 Este 0 -- -- 85
2019-03-26 21:00:00 13.2 4 Nordeste 15 Nordeste 0 -- -- 82
2019-03-26 20:00:00 13.5 0 Calma 8 Sur 0 -- -- 76
2019-03-26 19:00:00 13.8 3 Sur 16 Nordeste 0 -- -- 72
2019-03-26 18:00:00 14.3 6 Nordeste 20 Este 0 -- -- 67
2019-03-26 17:00:00 15 8 Nordeste 26 Este 0 -- -- 61
2019-03-26 16:00:00 15.9 7 Nordeste 33 Nordeste 0 -- -- 57
2019-03-26 15:00:00 16.5 11 Este 29 Nordeste 0 -- -- 50
2019-03-26 14:00:00 16.8 9 Este 27 Este 0 -- -- 47
2019-03-26 13:00:00 17.1 9 Este 31 Este 0 -- -- 47
2019-03-26 12:00:00 18.7 10 Este 33 Nordeste 0 -- -- 49
2019-03-26 11:00:00 18.2 11 Nordeste 32 Nordeste 0 -- -- 48
2019-03-26 10:00:00 17 9 Este 30 Nordeste 0 -- -- 52
2019-03-26 09:00:00 15.6 13 Nordeste 28 Nordeste 0 -- -- 54
2019-03-26 08:00:00 13.9 6 Nordeste 19 Nordeste 0 -- -- 59
2019-03-26 07:00:00 13.5 5 Nordeste 20 Nordeste 0 -- -- 60
2019-03-26 06:00:00 13.3 4 Este 19 Nordeste 0 -- -- 58
2019-03-26 05:00:00 13.5 7 Nordeste 19 Nordeste 0 -- -- 61
2019-03-26 04:00:00 13.3 3 Nordeste 20 Nordeste 0 -- -- 64
2019-03-26 03:00:00 13.8 6 Nordeste 20 Norte 0 -- -- 63
2019-03-26 02:00:00 14 8 Nordeste 20 Nordeste 0 -- -- 61
2019-03-26 01:00:00 14 6 Nordeste 23 Este 0 -- -- 62
2019-03-26 00:00:00 13.9 10 Nordeste 25 Norte 0 -- -- 62
2019-03-25 23:00:00 14.1 6 Nordeste 20 Nordeste 0 -- -- 61
2019-03-25 22:00:00 13.4 4 Nordeste 14 Nordeste 0 -- -- 65
2019-03-25 21:00:00 13.5 4 Sudeste 12 Este 0 -- -- 63
2019-03-25 20:00:00 13.8 4 Este 17 Nordeste 0 -- -- 69
2019-03-25 19:00:00 15 6 Este 19 Norte 0 -- -- 66
2019-03-25 18:00:00 16.6 6 Este 24 Nordeste 0 -- -- 57
2019-03-25 17:00:00 16.9 8 Este 26 Este 0 -- -- 56
2019-03-25 16:00:00 16.8 10 Nordeste 27 Nordeste 0 -- -- 57
2019-03-25 15:00:00 17.4 10 Nordeste 28 Nordeste 0 -- -- 54
2019-03-25 14:00:00 17.5 10 Nordeste 27 Norte 0 -- -- 54
2019-03-25 13:00:00 17.5 9 Este 24 Nordeste 0 -- -- 55
2019-03-25 12:00:00 16.7 10 Nordeste 25 Nordeste 0 -- -- 58
2019-03-25 11:00:00 16.2 6 Nordeste 23 Nordeste 0 -- -- 60
2019-03-25 10:00:00 16.2 6 Este 19 Nordeste 0 -- -- 58
2019-03-25 09:00:00 14.2 4 Este 15 Este 0 -- -- 64
2019-03-25 08:00:00 12.9 4 Nordeste 15 Este 0 -- -- 66
2019-03-25 07:00:00 12.8 3 Este 18 Nordeste 0 -- -- 65
2019-03-25 06:00:00 13.1 8 Nordeste 16 Nordeste 0 -- -- 64
2019-03-25 05:00:00 12.8 6 Nordeste 13 Nordeste 0 -- -- 67
2019-03-25 04:00:00 12.2 3 Sudeste 12 Este 0 -- -- 70
2019-03-25 03:00:00 12.9 5 Nordeste 23 Nordeste 0 -- -- 69
2019-03-25 02:00:00 13.3 3 Nordeste 20 Este 0 -- -- 69
2019-03-25 01:00:00 13.5 8 Nordeste 22 Nordeste 0 -- -- 65
2019-03-25 00:00:00 14.1 4 Sudeste 19 Este 0 -- -- 60